Orlando, Florida
Traffic Map
Current Weather Conditions
Orlando, Florida
Clear
Clear
59°
Feels Like: 59°
Wind Chill: 59° Ceiling: Unl
Heat Index: 59° Visibility: 10mi
Dew Point: 48° Wind: 10mph
Humidity: 67% Direction: 300° (WNW)
Pressure: 29.79in Gusts: 0mph
Raw Report DataKORL 240953Z AUTO 30009KT 10SM CLR 15/09 A2979 RMK AO2 SLP090 T01500089
Traffic Incident Summary
Active as of:
Severity:
Category:
InformationThere was an issue retrieving the traffic information for this location. Please try a different location or try again shortly.
Advertisements
Track Severe Weather on mobile